sensor_id;sensor_type;location;lat;lon;timestamp;P1;durP1;ratioP1;P2;durP2;ratioP2
12535;SDS011;6334;48.696;2.114;2022-10-26T00:02:19;2.13;;;1.93;;
12535;SDS011;6334;48.696;2.114;2022-10-26T00:04:49;3.47;;;2.47;;
12535;SDS011;6334;48.696;2.114;2022-10-26T00:07:19;3.80;;;2.10;;
12535;SDS011;6334;48.696;2.114;2022-10-26T00:09:50;4.77;;;2.63;;
12535;SDS011;6334;48.696;2.114;2022-10-26T00:12:20;4.50;;;2.47;;
12535;SDS011;6334;48.696;2.114;2022-10-26T00:14:51;2.73;;;2.43;;
12535;SDS011;6334;48.696;2.114;2022-10-26T00:17:21;2.53;;;2.27;;
12535;SDS011;6334;48.696;2.114;2022-10-26T00:19:52;3.13;;;2.30;;
12535;SDS011;6334;48.696;2.114;2022-10-26T00:22:22;5.83;;;2.50;;
12535;SDS011;6334;48.696;2.114;2022-10-26T00:24:53;3.37;;;2.63;;
12535;SDS011;6334;48.696;2.114;2022-10-26T00:27:23;3.43;;;2.37;;
12535;SDS011;6334;48.696;2.114;2022-10-26T00:29:54;6.97;;;2.73;;
12535;SDS011;6334;48.696;2.114;2022-10-26T00:32:24;4.50;;;2.77;;
12535;SDS011;6334;48.696;2.114;2022-10-26T00:34:55;3.60;;;2.53;;
12535;SDS011;6334;48.696;2.114;2022-10-26T00:37:25;4.77;;;2.63;;
12535;SDS011;6334;48.696;2.114;2022-10-26T00:39:55;3.57;;;2.40;;
12535;SDS011;6334;48.696;2.114;2022-10-26T00:42:26;4.03;;;2.73;;
12535;SDS011;6334;48.696;2.114;2022-10-26T00:44:57;4.90;;;2.60;;
12535;SDS011;6334;48.696;2.114;2022-10-26T00:50:02;4.57;;;2.83;;
12535;SDS011;6334;48.696;2.114;2022-10-26T00:52:30;3.30;;;2.73;;
12535;SDS011;6334;48.696;2.114;2022-10-26T00:55:01;3.47;;;2.30;;
12535;SDS011;6334;48.696;2.114;2022-10-26T00:57:31;2.40;;;2.20;;
12535;SDS011;6334;48.696;2.114;2022-10-26T01:00:03;4.63;;;2.40;;
12535;SDS011;6334;48.696;2.114;2022-10-26T01:02:32;4.53;;;2.53;;
12535;SDS011;6334;48.696;2.114;2022-10-26T01:05:03;4.00;;;2.50;;
12535;SDS011;6334;48.696;2.114;2022-10-26T01:07:33;4.53;;;2.57;;
12535;SDS011;6334;48.696;2.114;2022-10-26T01:10:04;3.57;;;2.63;;
12535;SDS011;6334;48.696;2.114;2022-10-26T01:12:34;3.07;;;2.77;;
12535;SDS011;6334;48.696;2.114;2022-10-26T01:15:05;3.00;;;2.20;;
12535;SDS011;6334;48.696;2.114;2022-10-26T01:17:54;3.13;;;2.07;;
12535;SDS011;6334;48.696;2.114;2022-10-26T01:23:04;3.90;;;3.00;;
12535;SDS011;6334;48.696;2.114;2022-10-26T01:28:26;6.47;;;3.00;;
12535;SDS011;6334;48.696;2.114;2022-10-26T01:30:49;4.27;;;2.27;;
12535;SDS011;6334;48.696;2.114;2022-10-26T01:38:51;5.50;;;2.17;;
12535;SDS011;6334;48.696;2.114;2022-10-26T01:41:38;2.90;;;2.60;;
12535;SDS011;6334;48.696;2.114;2022-10-26T01:44:28;4.97;;;2.97;;
12535;SDS011;6334;48.696;2.114;2022-10-26T01:46:54;2.87;;;2.43;;
12535;SDS011;6334;48.696;2.114;2022-10-26T01:49:26;7.03;;;3.33;;
12535;SDS011;6334;48.696;2.114;2022-10-26T01:51:56;5.20;;;2.93;;
12535;SDS011;6334;48.696;2.114;2022-10-26T01:54:27;5.03;;;3.17;;
12535;SDS011;6334;48.696;2.114;2022-10-26T01:56:59;5.43;;;3.17;;
12535;SDS011;6334;48.696;2.114;2022-10-26T02:05:06;4.23;;;2.40;;
12535;SDS011;6334;48.696;2.114;2022-10-26T02:07:49;3.33;;;2.80;;
12535;SDS011;6334;48.696;2.114;2022-10-26T02:10:23;3.03;;;2.27;;
12535;SDS011;6334;48.696;2.114;2022-10-26T02:13:15;3.60;;;2.43;;
12535;SDS011;6334;48.696;2.114;2022-10-26T02:21:27;3.60;;;2.80;;
12535;SDS011;6334;48.696;2.114;2022-10-26T02:23:56;6.13;;;3.20;;
12535;SDS011;6334;48.696;2.114;2022-10-26T02:26:27;3.17;;;2.70;;
12535;SDS011;6334;48.696;2.114;2022-10-26T02:28:59;3.47;;;2.70;;
12535;SDS011;6334;48.696;2.114;2022-10-26T02:31:28;5.60;;;3.03;;
12535;SDS011;6334;48.696;2.114;2022-10-26T02:34:00;4.47;;;3.00;;
12535;SDS011;6334;48.696;2.114;2022-10-26T02:36:30;6.57;;;3.00;;
12535;SDS011;6334;48.696;2.114;2022-10-26T02:39:00;2.63;;;2.43;;
12535;SDS011;6334;48.696;2.114;2022-10-26T02:41:30;5.77;;;2.93;;
12535;SDS011;6334;48.696;2.114;2022-10-26T02:46:37;3.20;;;2.50;;
12535;SDS011;6334;48.696;2.114;2022-10-26T02:49:07;4.83;;;2.97;;
12535;SDS011;6334;48.696;2.114;2022-10-26T02:51:46;4.53;;;2.57;;
12535;SDS011;6334;48.696;2.114;2022-10-26T02:56:55;3.83;;;2.87;;
12535;SDS011;6334;48.696;2.114;2022-10-26T02:59:25;8.30;;;2.83;;
12535;SDS011;6334;48.696;2.114;2022-10-26T03:01:55;4.07;;;2.63;;
12535;SDS011;6334;48.696;2.114;2022-10-26T03:04:31;7.00;;;2.73;;
12535;SDS011;6334;48.696;2.114;2022-10-26T03:07:01;6.43;;;2.83;;
12535;SDS011;6334;48.696;2.114;2022-10-26T03:09:32;5.07;;;2.83;;
12535;SDS011;6334;48.696;2.114;2022-10-26T03:12:02;7.10;;;3.23;;
12535;SDS011;6334;48.696;2.114;2022-10-26T03:14:33;4.07;;;2.53;;
12535;SDS011;6334;48.696;2.114;2022-10-26T03:17:03;3.07;;;2.77;;
12535;SDS011;6334;48.696;2.114;2022-10-26T03:19:34;5.90;;;2.97;;
12535;SDS011;6334;48.696;2.114;2022-10-26T03:22:04;3.37;;;2.57;;
12535;SDS011;6334;48.696;2.114;2022-10-26T03:24:34;6.70;;;2.87;;
12535;SDS011;6334;48.696;2.114;2022-10-26T03:27:05;3.93;;;2.73;;
12535;SDS011;6334;48.696;2.114;2022-10-26T03:29:35;4.77;;;2.30;;
12535;SDS011;6334;48.696;2.114;2022-10-26T03:32:06;3.63;;;2.60;;
12535;SDS011;6334;48.696;2.114;2022-10-26T03:34:36;3.83;;;2.47;;
12535;SDS011;6334;48.696;2.114;2022-10-26T03:37:07;2.40;;;2.17;;
12535;SDS011;6334;48.696;2.114;2022-10-26T03:39:37;6.53;;;3.00;;
12535;SDS011;6334;48.696;2.114;2022-10-26T03:42:08;6.30;;;2.77;;
12535;SDS011;6334;48.696;2.114;2022-10-26T03:44:38;5.40;;;3.10;;
12535;SDS011;6334;48.696;2.114;2022-10-26T03:47:09;5.10;;;3.07;;
12535;SDS011;6334;48.696;2.114;2022-10-26T03:49:39;8.60;;;3.07;;
12535;SDS011;6334;48.696;2.114;2022-10-26T03:52:09;4.93;;;2.73;;
12535;SDS011;6334;48.696;2.114;2022-10-26T03:54:40;2.80;;;2.50;;
12535;SDS011;6334;48.696;2.114;2022-10-26T03:57:10;4.10;;;2.33;;
12535;SDS011;6334;48.696;2.114;2022-10-26T03:59:41;3.50;;;2.37;;
12535;SDS011;6334;48.696;2.114;2022-10-26T04:02:11;4.77;;;2.87;;
12535;SDS011;6334;48.696;2.114;2022-10-26T04:04:42;4.57;;;2.83;;
12535;SDS011;6334;48.696;2.114;2022-10-26T04:07:12;3.80;;;2.30;;
12535;SDS011;6334;48.696;2.114;2022-10-26T04:09:43;4.80;;;2.63;;
12535;SDS011;6334;48.696;2.114;2022-10-26T04:12:13;7.03;;;2.80;;
12535;SDS011;6334;48.696;2.114;2022-10-26T04:14:44;5.97;;;2.93;;
12535;SDS011;6334;48.696;2.114;2022-10-26T04:17:14;4.47;;;2.53;;
12535;SDS011;6334;48.696;2.114;2022-10-26T04:19:46;2.77;;;2.53;;
12535;SDS011;6334;48.696;2.114;2022-10-26T04:22:18;3.27;;;2.43;;
12535;SDS011;6334;48.696;2.114;2022-10-26T04:24:48;6.67;;;3.03;;
12535;SDS011;6334;48.696;2.114;2022-10-26T04:27:19;3.43;;;2.80;;
12535;SDS011;6334;48.696;2.114;2022-10-26T04:29:50;4.07;;;2.50;;
12535;SDS011;6334;48.696;2.114;2022-10-26T04:32:22;4.13;;;2.80;;
12535;SDS011;6334;48.696;2.114;2022-10-26T04:34:52;5.53;;;3.10;;
12535;SDS011;6334;48.696;2.114;2022-10-26T04:37:23;4.57;;;3.20;;
12535;SDS011;6334;48.696;2.114;2022-10-26T04:39:53;4.07;;;2.37;;
12535;SDS011;6334;48.696;2.114;2022-10-26T04:42:24;3.40;;;2.53;;
12535;SDS011;6334;48.696;2.114;2022-10-26T04:44:54;3.40;;;2.67;;
12535;SDS011;6334;48.696;2.114;2022-10-26T04:47:25;5.27;;;2.70;;
12535;SDS011;6334;48.696;2.114;2022-10-26T04:49:55;6.07;;;2.80;;
12535;SDS011;6334;48.696;2.114;2022-10-26T04:52:26;6.47;;;2.73;;
12535;SDS011;6334;48.696;2.114;2022-10-26T04:54:56;4.00;;;2.30;;
12535;SDS011;6334;48.696;2.114;2022-10-26T04:57:26;3.00;;;2.27;;
12535;SDS011;6334;48.696;2.114;2022-10-26T04:59:57;7.43;;;2.67;;
12535;SDS011;6334;48.696;2.114;2022-10-26T05:02:27;8.20;;;2.70;;
12535;SDS011;6334;48.696;2.114;2022-10-26T05:04:58;4.93;;;2.53;;
12535;SDS011;6334;48.696;2.114;2022-10-26T05:07:29;5.73;;;2.70;;
12535;SDS011;6334;48.696;2.114;2022-10-26T05:10:00;3.87;;;2.33;;
12535;SDS011;6334;48.696;2.114;2022-10-26T05:12:30;4.17;;;2.70;;
12535;SDS011;6334;48.696;2.114;2022-10-26T05:15:01;3.63;;;2.47;;
12535;SDS011;6334;48.696;2.114;2022-10-26T05:17:31;4.73;;;2.47;;
12535;SDS011;6334;48.696;2.114;2022-10-26T05:20:02;4.80;;;2.73;;
12535;SDS011;6334;48.696;2.114;2022-10-26T05:22:32;5.17;;;2.47;;
12535;SDS011;6334;48.696;2.114;2022-10-26T05:25:02;3.53;;;2.40;;
12535;SDS011;6334;48.696;2.114;2022-10-26T05:27:34;6.93;;;3.17;;
12535;SDS011;6334;48.696;2.114;2022-10-26T05:30:04;4.13;;;2.77;;
12535;SDS011;6334;48.696;2.114;2022-10-26T05:32:35;4.03;;;2.53;;
12535;SDS011;6334;48.696;2.114;2022-10-26T05:35:05;4.17;;;2.27;;
12535;SDS011;6334;48.696;2.114;2022-10-26T05:37:36;3.33;;;2.57;;
12535;SDS011;6334;48.696;2.114;2022-10-26T05:40:06;7.50;;;2.63;;
12535;SDS011;6334;48.696;2.114;2022-10-26T05:42:37;3.70;;;2.50;;
12535;SDS011;6334;48.696;2.114;2022-10-26T05:45:07;3.47;;;2.60;;
12535;SDS011;6334;48.696;2.114;2022-10-26T05:47:38;3.93;;;2.57;;
12535;SDS011;6334;48.696;2.114;2022-10-26T05:50:09;3.87;;;2.30;;
12535;SDS011;6334;48.696;2.114;2022-10-26T05:52:40;4.67;;;2.40;;
12535;SDS011;6334;48.696;2.114;2022-10-26T05:55:11;4.50;;;2.60;;
12535;SDS011;6334;48.696;2.114;2022-10-26T05:57:44;3.17;;;2.30;;
12535;SDS011;6334;48.696;2.114;2022-10-26T06:00:16;4.90;;;2.60;;
12535;SDS011;6334;48.696;2.114;2022-10-26T06:05:54;5.13;;;2.90;;
12535;SDS011;6334;48.696;2.114;2022-10-26T06:08:25;2.90;;;2.13;;
12535;SDS011;6334;48.696;2.114;2022-10-26T06:10:55;4.37;;;2.67;;
12535;SDS011;6334;48.696;2.114;2022-10-26T06:13:27;2.37;;;2.20;;
12535;SDS011;6334;48.696;2.114;2022-10-26T06:24:21;7.13;;;2.90;;
12535;SDS011;6334;48.696;2.114;2022-10-26T06:29:35;3.13;;;2.57;;
12535;SDS011;6334;48.696;2.114;2022-10-26T06:32:01;5.67;;;2.07;;
12535;SDS011;6334;48.696;2.114;2022-10-26T06:34:32;3.73;;;2.30;;
12535;SDS011;6334;48.696;2.114;2022-10-26T06:37:02;3.03;;;2.40;;
12535;SDS011;6334;48.696;2.114;2022-10-26T06:39:34;4.97;;;2.50;;
12535;SDS011;6334;48.696;2.114;2022-10-26T06:42:03;7.37;;;2.67;;
12535;SDS011;6334;48.696;2.114;2022-10-26T06:44:33;6.20;;;2.70;;
12535;SDS011;6334;48.696;2.114;2022-10-26T06:47:22;7.83;;;3.07;;
12535;SDS011;6334;48.696;2.114;2022-10-26T06:49:56;4.70;;;3.17;;
12535;SDS011;6334;48.696;2.114;2022-10-26T06:52:28;5.43;;;2.50;;
12535;SDS011;6334;48.696;2.114;2022-10-26T06:55:12;3.93;;;2.80;;
12535;SDS011;6334;48.696;2.114;2022-10-26T06:57:43;6.37;;;2.63;;
12535;SDS011;6334;48.696;2.114;2022-10-26T07:02:51;3.17;;;2.50;;
12535;SDS011;6334;48.696;2.114;2022-10-26T07:05:22;4.80;;;3.00;;
12535;SDS011;6334;48.696;2.114;2022-10-26T07:07:53;4.07;;;3.00;;
12535;SDS011;6334;48.696;2.114;2022-10-26T07:10:23;4.83;;;2.70;;
12535;SDS011;6334;48.696;2.114;2022-10-26T07:12:54;3.00;;;2.37;;
12535;SDS011;6334;48.696;2.114;2022-10-26T07:15:24;6.73;;;3.00;;
12535;SDS011;6334;48.696;2.114;2022-10-26T07:17:54;7.80;;;3.00;;
12535;SDS011;6334;48.696;2.114;2022-10-26T07:20:25;6.27;;;2.70;;
12535;SDS011;6334;48.696;2.114;2022-10-26T07:22:55;5.23;;;2.40;;
12535;SDS011;6334;48.696;2.114;2022-10-26T07:25:26;7.97;;;2.90;;
12535;SDS011;6334;48.696;2.114;2022-10-26T07:27:57;3.87;;;2.73;;
12535;SDS011;6334;48.696;2.114;2022-10-26T07:30:27;4.40;;;2.50;;
12535;SDS011;6334;48.696;2.114;2022-10-26T07:33:00;4.30;;;2.90;;
12535;SDS011;6334;48.696;2.114;2022-10-26T07:35:34;5.30;;;2.77;;
12535;SDS011;6334;48.696;2.114;2022-10-26T07:38:03;4.17;;;2.37;;
12535;SDS011;6334;48.696;2.114;2022-10-26T07:40:34;4.33;;;2.87;;
12535;SDS011;6334;48.696;2.114;2022-10-26T07:43:04;6.57;;;2.83;;
12535;SDS011;6334;48.696;2.114;2022-10-26T07:45:34;3.70;;;2.97;;
12535;SDS011;6334;48.696;2.114;2022-10-26T07:48:05;9.23;;;3.23;;
12535;SDS011;6334;48.696;2.114;2022-10-26T07:50:35;9.00;;;3.30;;
12535;SDS011;6334;48.696;2.114;2022-10-26T07:53:06;5.93;;;2.90;;
12535;SDS011;6334;48.696;2.114;2022-10-26T07:55:36;3.33;;;2.90;;
12535;SDS011;6334;48.696;2.114;2022-10-26T07:58:07;7.23;;;3.07;;
12535;SDS011;6334;48.696;2.114;2022-10-26T08:00:37;5.03;;;3.00;;
12535;SDS011;6334;48.696;2.114;2022-10-26T08:03:08;8.73;;;2.67;;
12535;SDS011;6334;48.696;2.114;2022-10-26T08:05:38;5.47;;;2.80;;
12535;SDS011;6334;48.696;2.114;2022-10-26T08:08:08;5.43;;;2.87;;
12535;SDS011;6334;48.696;2.114;2022-10-26T08:10:42;4.12;;;3.10;;
12535;SDS011;6334;48.696;2.114;2022-10-26T08:13:12;7.03;;;2.67;;
12535;SDS011;6334;48.696;2.114;2022-10-26T08:15:42;7.23;;;3.27;;
12535;SDS011;6334;48.696;2.114;2022-10-26T08:18:12;7.37;;;3.43;;
12535;SDS011;6334;48.696;2.114;2022-10-26T08:20:43;7.93;;;2.97;;
12535;SDS011;6334;48.696;2.114;2022-10-26T08:23:13;4.63;;;2.90;;
12535;SDS011;6334;48.696;2.114;2022-10-26T08:25:44;4.10;;;2.73;;
12535;SDS011;6334;48.696;2.114;2022-10-26T08:28:14;6.60;;;3.23;;
12535;SDS011;6334;48.696;2.114;2022-10-26T08:30:45;5.90;;;3.00;;
12535;SDS011;6334;48.696;2.114;2022-10-26T08:33:15;4.13;;;2.53;;
12535;SDS011;6334;48.696;2.114;2022-10-26T08:35:45;7.43;;;2.80;;
12535;SDS011;6334;48.696;2.114;2022-10-26T08:38:16;5.70;;;2.93;;
12535;SDS011;6334;48.696;2.114;2022-10-26T08:40:46;5.77;;;2.70;;
12535;SDS011;6334;48.696;2.114;2022-10-26T08:45:50;5.60;;;2.57;;
12535;SDS011;6334;48.696;2.114;2022-10-26T08:48:22;5.87;;;2.87;;
12535;SDS011;6334;48.696;2.114;2022-10-26T08:50:54;5.67;;;2.50;;
12535;SDS011;6334;48.696;2.114;2022-10-26T08:53:40;6.43;;;2.90;;
12535;SDS011;6334;48.696;2.114;2022-10-26T08:56:14;10.03;;;3.07;;
12535;SDS011;6334;48.696;2.114;2022-10-26T08:58:46;8.00;;;3.03;;
12535;SDS011;6334;48.696;2.114;2022-10-26T09:01:16;4.57;;;2.93;;
12535;SDS011;6334;48.696;2.114;2022-10-26T09:03:46;5.00;;;2.77;;
12535;SDS011;6334;48.696;2.114;2022-10-26T09:06:24;6.07;;;2.83;;
12535;SDS011;6334;48.696;2.114;2022-10-26T09:11:45;5.50;;;2.83;;
12535;SDS011;6334;48.696;2.114;2022-10-26T09:14:45;8.90;;;2.97;;
12535;SDS011;6334;48.696;2.114;2022-10-26T09:17:17;5.33;;;2.83;;
12535;SDS011;6334;48.696;2.114;2022-10-26T09:22:49;6.37;;;2.47;;
12535;SDS011;6334;48.696;2.114;2022-10-26T09:25:25;6.67;;;2.77;;
12535;SDS011;6334;48.696;2.114;2022-10-26T09:27:56;6.63;;;2.90;;
12535;SDS011;6334;48.696;2.114;2022-10-26T09:30:25;3.73;;;2.43;;
12535;SDS011;6334;48.696;2.114;2022-10-26T09:32:59;7.97;;;2.83;;
12535;SDS011;6334;48.696;2.114;2022-10-26T09:36:16;3.57;;;2.07;;
12535;SDS011;6334;48.696;2.114;2022-10-26T09:38:08;6.23;;;2.33;;
12535;SDS011;6334;48.696;2.114;2022-10-26T09:40:44;7.37;;;3.00;;
12535;SDS011;6334;48.696;2.114;2022-10-26T09:43:12;5.60;;;2.57;;
12535;SDS011;6334;48.696;2.114;2022-10-26T09:45:43;5.13;;;3.17;;
12535;SDS011;6334;48.696;2.114;2022-10-26T09:50:46;4.57;;;2.27;;
12535;SDS011;6334;48.696;2.114;2022-10-26T09:53:16;8.10;;;2.97;;
12535;SDS011;6334;48.696;2.114;2022-10-26T09:55:47;5.80;;;2.63;;
12535;SDS011;6334;48.696;2.114;2022-10-26T09:58:20;5.03;;;2.50;;
12535;SDS011;6334;48.696;2.114;2022-10-26T10:00:50;6.97;;;2.90;;
12535;SDS011;6334;48.696;2.114;2022-10-26T10:03:27;6.67;;;2.87;;
12535;SDS011;6334;48.696;2.114;2022-10-26T10:06:30;4.50;;;2.77;;
12535;SDS011;6334;48.696;2.114;2022-10-26T10:09:29;3.47;;;2.53;;
12535;SDS011;6334;48.696;2.114;2022-10-26T10:11:37;3.60;;;2.60;;
12535;SDS011;6334;48.696;2.114;2022-10-26T10:14:08;3.67;;;2.47;;
12535;SDS011;6334;48.696;2.114;2022-10-26T10:16:38;6.87;;;2.53;;
12535;SDS011;6334;48.696;2.114;2022-10-26T10:19:09;2.90;;;2.10;;
12535;SDS011;6334;48.696;2.114;2022-10-26T10:21:39;5.80;;;2.43;;
12535;SDS011;6334;48.696;2.114;2022-10-26T10:24:22;5.80;;;2.53;;
12535;SDS011;6334;48.696;2.114;2022-10-26T10:26:55;5.60;;;2.47;;
12535;SDS011;6334;48.696;2.114;2022-10-26T10:29:25;3.40;;;2.17;;
12535;SDS011;6334;48.696;2.114;2022-10-26T10:31:58;4.60;;;3.00;;
12535;SDS011;6334;48.696;2.114;2022-10-26T10:34:31;5.90;;;2.70;;
12535;SDS011;6334;48.696;2.114;2022-10-26T10:37:01;2.53;;;2.33;;
12535;SDS011;6334;48.696;2.114;2022-10-26T10:39:40;3.97;;;2.10;;
12535;SDS011;6334;48.696;2.114;2022-10-26T10:42:29;5.47;;;2.20;;
12535;SDS011;6334;48.696;2.114;2022-10-26T10:44:50;6.55;;;2.80;;
12535;SDS011;6334;48.696;2.114;2022-10-26T10:47:21;4.67;;;3.03;;
12535;SDS011;6334;48.696;2.114;2022-10-26T10:49:54;6.47;;;3.00;;
12535;SDS011;6334;48.696;2.114;2022-10-26T10:52:24;5.33;;;2.70;;
12535;SDS011;6334;48.696;2.114;2022-10-26T10:54:58;4.93;;;2.67;;
12535;SDS011;6334;48.696;2.114;2022-10-26T11:00:03;4.30;;;2.87;;
12535;SDS011;6334;48.696;2.114;2022-10-26T11:05:22;5.57;;;2.50;;
12535;SDS011;6334;48.696;2.114;2022-10-26T11:08:18;12.20;;;3.20;;
12535;SDS011;6334;48.696;2.114;2022-10-26T11:10:49;4.63;;;2.33;;
12535;SDS011;6334;48.696;2.114;2022-10-26T11:13:30;6.27;;;2.20;;
12535;SDS011;6334;48.696;2.114;2022-10-26T11:16:00;5.37;;;2.73;;
12535;SDS011;6334;48.696;2.114;2022-10-26T11:18:33;4.83;;;2.10;;
12535;SDS011;6334;48.696;2.114;2022-10-26T11:21:18;6.37;;;2.97;;
12535;SDS011;6334;48.696;2.114;2022-10-26T11:23:53;4.30;;;2.60;;
12535;SDS011;6334;48.696;2.114;2022-10-26T11:26:57;4.57;;;3.00;;
12535;SDS011;6334;48.696;2.114;2022-10-26T11:29:02;4.10;;;2.37;;
12535;SDS011;6334;48.696;2.114;2022-10-26T11:31:37;4.40;;;2.63;;
12535;SDS011;6334;48.696;2.114;2022-10-26T11:37:07;3.67;;;2.80;;
12535;SDS011;6334;48.696;2.114;2022-10-26T11:39:35;5.03;;;2.53;;
12535;SDS011;6334;48.696;2.114;2022-10-26T11:42:14;6.63;;;2.43;;
12535;SDS011;6334;48.696;2.114;2022-10-26T11:44:42;6.53;;;2.50;;
12535;SDS011;6334;48.696;2.114;2022-10-26T11:47:32;4.73;;;2.10;;
12535;SDS011;6334;48.696;2.114;2022-10-26T11:50:47;3.77;;;2.20;;
12535;SDS011;6334;48.696;2.114;2022-10-26T11:55:25;3.00;;;2.17;;
12535;SDS011;6334;48.696;2.114;2022-10-26T11:57:56;6.23;;;2.30;;
12535;SDS011;6334;48.696;2.114;2022-10-26T12:00:28;7.53;;;2.87;;
12535;SDS011;6334;48.696;2.114;2022-10-26T12:03:11;7.77;;;2.67;;
12535;SDS011;6334;48.696;2.114;2022-10-26T12:08:13;5.40;;;1.93;;
12535;SDS011;6334;48.696;2.114;2022-10-26T12:10:46;4.37;;;1.80;;
12535;SDS011;6334;48.696;2.114;2022-10-26T12:18:39;9.53;;;2.70;;
12535;SDS011;6334;48.696;2.114;2022-10-26T12:21:10;4.47;;;2.17;;
12535;SDS011;6334;48.696;2.114;2022-10-26T12:23:53;5.80;;;2.40;;
12535;SDS011;6334;48.696;2.114;2022-10-26T12:34:09;2.63;;;1.97;;
12535;SDS011;6334;48.696;2.114;2022-10-26T12:44:40;3.87;;;2.10;;
12535;SDS011;6334;48.696;2.114;2022-10-26T12:52:45;2.77;;;1.73;;
12535;SDS011;6334;48.696;2.114;2022-10-26T12:58:13;4.63;;;2.10;;
12535;SDS011;6334;48.696;2.114;2022-10-26T13:09:19;6.13;;;2.37;;
12535;SDS011;6334;48.696;2.114;2022-10-26T13:11:52;5.43;;;1.63;;
12535;SDS011;6334;48.696;2.114;2022-10-26T13:14:22;4.40;;;1.50;;
12535;SDS011;6334;48.696;2.114;2022-10-26T13:16:53;4.00;;;1.53;;
12535;SDS011;6334;48.696;2.114;2022-10-26T13:19:30;4.53;;;2.10;;
12535;SDS011;6334;48.696;2.114;2022-10-26T13:21:59;6.23;;;2.47;;
12535;SDS011;6334;48.696;2.114;2022-10-26T13:24:30;5.20;;;2.03;;
12535;SDS011;6334;48.696;2.114;2022-10-26T13:32:35;3.67;;;2.00;;
12535;SDS011;6334;48.696;2.114;2022-10-26T13:35:05;4.67;;;2.00;;
12535;SDS011;6334;48.696;2.114;2022-10-26T13:37:35;3.17;;;1.70;;
12535;SDS011;6334;48.696;2.114;2022-10-26T13:40:06;5.60;;;2.27;;
12535;SDS011;6334;48.696;2.114;2022-10-26T13:42:59;3.37;;;1.60;;
12535;SDS011;6334;48.696;2.114;2022-10-26T13:45:07;4.17;;;2.23;;
12535;SDS011;6334;48.696;2.114;2022-10-26T13:50:45;5.13;;;1.83;;
12535;SDS011;6334;48.696;2.114;2022-10-26T13:53:07;2.87;;;1.87;;
12535;SDS011;6334;48.696;2.114;2022-10-26T13:58:24;3.87;;;1.97;;
12535;SDS011;6334;48.696;2.114;2022-10-26T14:03:34;5.43;;;1.70;;
12535;SDS011;6334;48.696;2.114;2022-10-26T14:06:10;3.00;;;1.57;;
12535;SDS011;6334;48.696;2.114;2022-10-26T14:08:37;2.70;;;1.70;;
12535;SDS011;6334;48.696;2.114;2022-10-26T14:11:09;3.77;;;1.93;;
12535;SDS011;6334;48.696;2.114;2022-10-26T14:13:41;1.70;;;1.60;;
12535;SDS011;6334;48.696;2.114;2022-10-26T14:16:11;3.93;;;1.80;;
12535;SDS011;6334;48.696;2.114;2022-10-26T14:18:42;3.30;;;2.03;;
12535;SDS011;6334;48.696;2.114;2022-10-26T14:21:13;2.13;;;1.40;;
12535;SDS011;6334;48.696;2.114;2022-10-26T14:26:18;3.40;;;2.07;;
12535;SDS011;6334;48.696;2.114;2022-10-26T14:28:54;1.80;;;1.37;;
12535;SDS011;6334;48.696;2.114;2022-10-26T14:31:25;3.37;;;1.90;;
12535;SDS011;6334;48.696;2.114;2022-10-26T14:34:00;3.50;;;1.60;;
12535;SDS011;6334;48.696;2.114;2022-10-26T14:36:35;3.37;;;1.87;;
12535;SDS011;6334;48.696;2.114;2022-10-26T14:39:12;2.53;;;2.20;;
12535;SDS011;6334;48.696;2.114;2022-10-26T14:41:36;3.07;;;1.87;;
12535;SDS011;6334;48.696;2.114;2022-10-26T14:44:13;4.53;;;1.73;;
12535;SDS011;6334;48.696;2.114;2022-10-26T14:46:37;3.10;;;1.73;;
12535;SDS011;6334;48.696;2.114;2022-10-26T14:49:11;6.63;;;2.07;;
12535;SDS011;6334;48.696;2.114;2022-10-26T14:51:38;5.20;;;2.13;;
12535;SDS011;6334;48.696;2.114;2022-10-26T14:54:18;5.27;;;1.77;;
12535;SDS011;6334;48.696;2.114;2022-10-26T14:56:47;3.30;;;1.53;;
12535;SDS011;6334;48.696;2.114;2022-10-26T14:59:21;3.37;;;1.80;;
12535;SDS011;6334;48.696;2.114;2022-10-26T15:01:55;4.83;;;1.73;;
12535;SDS011;6334;48.696;2.114;2022-10-26T15:04:28;5.67;;;1.83;;
12535;SDS011;6334;48.696;2.114;2022-10-26T15:07:00;6.33;;;2.47;;
12535;SDS011;6334;48.696;2.114;2022-10-26T15:09:31;5.70;;;2.27;;
12535;SDS011;6334;48.696;2.114;2022-10-26T15:12:00;11.33;;;2.50;;
12535;SDS011;6334;48.696;2.114;2022-10-26T15:14:31;6.57;;;2.70;;
12535;SDS011;6334;48.696;2.114;2022-10-26T15:17:01;3.40;;;2.20;;
12535;SDS011;6334;48.696;2.114;2022-10-26T15:19:33;2.43;;;1.87;;
12535;SDS011;6334;48.696;2.114;2022-10-26T15:22:03;4.70;;;2.23;;
12535;SDS011;6334;48.696;2.114;2022-10-26T15:24:36;4.23;;;2.00;;
12535;SDS011;6334;48.696;2.114;2022-10-26T15:27:16;5.67;;;1.77;;
12535;SDS011;6334;48.696;2.114;2022-10-26T15:29:50;3.00;;;1.73;;
12535;SDS011;6334;48.696;2.114;2022-10-26T15:32:26;3.87;;;1.80;;
12535;SDS011;6334;48.696;2.114;2022-10-26T15:37:39;3.40;;;1.70;;
12535;SDS011;6334;48.696;2.114;2022-10-26T15:40:10;1.53;;;1.40;;
12535;SDS011;6334;48.696;2.114;2022-10-26T15:42:40;3.00;;;1.77;;
12535;SDS011;6334;48.696;2.114;2022-10-26T15:45:20;4.13;;;2.10;;
12535;SDS011;6334;48.696;2.114;2022-10-26T15:47:53;3.83;;;1.80;;
12535;SDS011;6334;48.696;2.114;2022-10-26T15:50:24;3.67;;;1.50;;
12535;SDS011;6334;48.696;2.114;2022-10-26T15:52:54;4.63;;;2.17;;
12535;SDS011;6334;48.696;2.114;2022-10-26T15:55:24;2.13;;;1.63;;
12535;SDS011;6334;48.696;2.114;2022-10-26T15:57:54;3.40;;;1.37;;
12535;SDS011;6334;48.696;2.114;2022-10-26T16:00:25;2.67;;;1.63;;
12535;SDS011;6334;48.696;2.114;2022-10-26T16:02:55;2.33;;;1.50;;
12535;SDS011;6334;48.696;2.114;2022-10-26T16:05:26;3.50;;;1.80;;
12535;SDS011;6334;48.696;2.114;2022-10-26T16:07:56;4.60;;;2.07;;
12535;SDS011;6334;48.696;2.114;2022-10-26T16:10:27;3.07;;;2.37;;
12535;SDS011;6334;48.696;2.114;2022-10-26T16:12:58;3.53;;;2.53;;
12535;SDS011;6334;48.696;2.114;2022-10-26T16:15:28;5.13;;;2.27;;
12535;SDS011;6334;48.696;2.114;2022-10-26T16:17:58;4.67;;;2.50;;
12535;SDS011;6334;48.696;2.114;2022-10-26T16:20:29;4.20;;;1.83;;
12535;SDS011;6334;48.696;2.114;2022-10-26T16:22:59;2.33;;;2.10;;
12535;SDS011;6334;48.696;2.114;2022-10-26T16:25:34;3.83;;;2.20;;
12535;SDS011;6334;48.696;2.114;2022-10-26T16:28:03;3.20;;;1.97;;
12535;SDS011;6334;48.696;2.114;2022-10-26T16:30:33;3.03;;;1.60;;
12535;SDS011;6334;48.696;2.114;2022-10-26T16:33:02;3.23;;;1.57;;
12535;SDS011;6334;48.696;2.114;2022-10-26T16:35:32;5.80;;;2.20;;
12535;SDS011;6334;48.696;2.114;2022-10-26T16:38:01;4.50;;;2.10;;
12535;SDS011;6334;48.696;2.114;2022-10-26T16:40:32;3.70;;;2.00;;
12535;SDS011;6334;48.696;2.114;2022-10-26T16:43:01;5.20;;;2.43;;
12535;SDS011;6334;48.696;2.114;2022-10-26T16:45:31;6.13;;;2.43;;
12535;SDS011;6334;48.696;2.114;2022-10-26T16:48:02;2.43;;;1.80;;
12535;SDS011;6334;48.696;2.114;2022-10-26T16:50:32;3.23;;;2.20;;
12535;SDS011;6334;48.696;2.114;2022-10-26T16:53:03;3.63;;;1.93;;
12535;SDS011;6334;48.696;2.114;2022-10-26T16:55:33;4.27;;;2.30;;
12535;SDS011;6334;48.696;2.114;2022-10-26T16:58:04;3.83;;;2.47;;
12535;SDS011;6334;48.696;2.114;2022-10-26T17:00:34;3.57;;;2.43;;
12535;SDS011;6334;48.696;2.114;2022-10-26T17:03:04;3.20;;;2.50;;
12535;SDS011;6334;48.696;2.114;2022-10-26T17:05:35;4.23;;;2.90;;
12535;SDS011;6334;48.696;2.114;2022-10-26T17:08:05;4.03;;;2.80;;
12535;SDS011;6334;48.696;2.114;2022-10-26T17:10:36;4.73;;;2.93;;
12535;SDS011;6334;48.696;2.114;2022-10-26T17:13:06;5.30;;;3.60;;
12535;SDS011;6334;48.696;2.114;2022-10-26T17:15:37;8.53;;;3.80;;
12535;SDS011;6334;48.696;2.114;2022-10-26T17:18:07;6.73;;;3.90;;
12535;SDS011;6334;48.696;2.114;2022-10-26T17:20:38;4.90;;;3.50;;
12535;SDS011;6334;48.696;2.114;2022-10-26T17:23:08;4.57;;;3.37;;
12535;SDS011;6334;48.696;2.114;2022-10-26T17:25:39;6.00;;;2.77;;
12535;SDS011;6334;48.696;2.114;2022-10-26T17:28:10;5.17;;;2.60;;
12535;SDS011;6334;48.696;2.114;2022-10-26T17:30:40;5.67;;;2.63;;
12535;SDS011;6334;48.696;2.114;2022-10-26T17:33:10;3.73;;;2.33;;
12535;SDS011;6334;48.696;2.114;2022-10-26T17:35:41;6.10;;;2.50;;
12535;SDS011;6334;48.696;2.114;2022-10-26T17:38:11;4.70;;;2.70;;